Time;durP1;ratioP1;P1;durP2;ratioP2;P2;SDS_P1;SDS_P2;PMS_P1;PMS_P2;Temp;Humidity;BMP_temperature;BMP_pressure;BME280_temperature;BME280_humidity;BME280_pressure;Samples;Min_cycle;Max_cycle;Signal;HPM_P1;HPM_P2
2021/09/17 00:00:38;;;;;;;7.27;3.33;;;;;;;25.91;60.83;98140.38;5012499;28;20207;-71
2021/09/17 00:03:06;;;;;;;4.00;2.77;;;;;;;25.84;58.52;98148.94;5012650;28;20238;-71
2021/09/17 00:05:33;;;;;;;5.07;3.40;;;;;;;25.41;59.14;98144.63;5011989;28;20215;-70
2021/09/17 00:08:00;;;;;;;4.57;3.13;;;;;;;25.19;61.60;98138.03;5011736;28;20579;-71
2021/09/17 00:10:27;;;;;;;3.70;3.10;;;;;;;24.74;63.51;98133.06;5012508;28;20226;-70
2021/09/17 00:12:56;;;;;;;4.13;3.10;;;;;;;24.78;64.28;98131.41;5012599;28;20223;-72
2021/09/17 00:15:24;;;;;;;3.50;3.00;;;;;;;24.71;64.78;98130.91;5011891;28;20594;-70
2021/09/17 00:17:51;;;;;;;4.97;3.33;;;;;;;24.98;62.95;98139.38;5013236;28;20694;-70
2021/09/17 00:20:19;;;;;;;5.70;3.70;;;;;;;25.33;63.13;98147.19;5012045;28;20559;-72
2021/09/17 00:22:48;;;;;;;3.73;3.37;;;;;;;25.28;65.03;98133.59;5010128;28;20234;-69
2021/09/17 00:25:15;;;;;;;5.90;3.70;;;;;;;25.24;63.58;98135.25;5011058;28;20203;-71
2021/09/17 00:27:42;;;;;;;6.13;3.40;;;;;;;25.23;64.07;98136.38;5012702;28;20206;-70
2021/09/17 00:30:12;;;;;;;6.17;3.30;;;;;;;25.32;63.45;98137.34;5012192;28;20213;-70
2021/09/17 00:32:39;;;;;;;4.83;3.57;;;;;;;25.68;61.68;98138.50;5011885;28;20231;-72
2021/09/17 00:35:07;;;;;;;7.97;3.00;;;;;;;25.38;64.29;98137.00;5012005;28;20214;-71
2021/09/17 00:37:34;;;;;;;3.40;3.10;;;;;;;25.95;61.32;98133.25;5011734;28;20214;-70
2021/09/17 00:40:02;;;;;;;3.33;3.00;;;;;;;25.99;60.27;98128.81;5010520;28;20730;-70
2021/09/17 00:42:29;;;;;;;5.13;3.10;;;;;;;25.76;62.51;98122.28;5012017;28;20234;-70
2021/09/17 00:44:56;;;;;;;3.57;3.10;;;;;;;26.14;60.12;98125.84;5012164;28;20683;-71
2021/09/17 00:47:25;;;;;;;4.67;3.23;;;;;;;25.33;63.77;98109.75;5011333;28;20303;-71
2021/09/17 00:49:52;;;;;;;8.70;3.43;;;;;;;25.90;60.34;98122.34;5010428;28;20210;-70
2021/09/17 00:52:20;;;;;;;6.13;3.20;;;;;;;25.59;61.39;98119.22;5011495;28;20227;-72
2021/09/17 00:54:47;;;;;;;5.37;3.27;;;;;;;25.69;61.39;98121.81;5011841;28;20221;-71
2021/09/17 00:57:14;;;;;;;6.07;3.33;;;;;;;26.11;58.69;98129.16;5012093;28;20215;-71
2021/09/17 00:59:41;;;;;;;4.40;3.07;;;;;;;25.43;63.92;98126.00;5013839;28;20210;-72
2021/09/17 01:02:09;;;;;;;3.67;2.77;;;;;;;25.64;59.90;98129.31;5011941;28;20235;-71
2021/09/17 01:04:37;;;;;;;5.53;2.90;;;;;;;25.59;60.98;98121.16;5011460;28;20211;-72
2021/09/17 01:07:05;;;;;;;2.87;2.53;;;;;;;25.81;59.04;98127.69;5011953;28;20207;-69
2021/09/17 01:09:33;;;;;;;8.43;3.10;;;;;;;25.30;58.49;98126.75;5011389;28;20234;-71
2021/09/17 01:12:03;;;;;;;6.30;2.73;;;;;;;25.78;58.15;98127.44;5012341;28;20227;-71
2021/09/17 01:14:31;;;;;;;5.87;3.27;;;;;;;25.52;60.69;98110.59;5009286;28;20617;-70
2021/09/17 01:16:58;;;;;;;3.30;3.00;;;;;;;24.96;64.28;98108.78;5012232;28;20206;-71
2021/09/17 01:19:26;;;;;;;3.47;2.40;;;;;;;25.54;62.99;98102.09;5017020;28;20208;-71
2021/09/17 01:21:59;;;;;;;4.77;2.70;;;;;;;26.03;60.53;98111.50;5010301;28;20243;-69
2021/09/17 01:24:26;;;;;;;4.37;2.87;;;;;;;25.98;60.15;98105.28;5008696;28;20199;-70
2021/09/17 01:26:54;;;;;;;4.33;3.23;;;;;;;25.86;60.87;98111.19;5011680;28;20207;-71
2021/09/17 01:29:21;;;;;;;5.60;3.10;;;;;;;25.89;59.57;98109.78;5009710;28;20207;-70
2021/09/17 01:31:50;;;;;;;4.07;2.97;;;;;;;25.90;61.94;98105.94;5010869;28;20223;-71
2021/09/17 01:34:19;;;;;;;4.40;2.50;;;;;;;25.60;62.80;98104.47;5010802;28;20690;-70
2021/09/17 01:36:47;;;;;;;4.70;2.87;;;;;;;26.18;60.65;98103.06;5010357;28;20215;-70
2021/09/17 01:39:17;;;;;;;6.07;2.73;;;;;;;25.54;61.94;98099.38;5010456;28;20203;-70
2021/09/17 01:41:44;;;;;;;5.37;3.00;;;;;;;25.69;63.02;98091.75;5011152;28;20237;-70
2021/09/17 01:44:12;;;;;;;4.87;2.80;;;;;;;25.67;62.88;98091.25;5011172;28;20207;-70
2021/09/17 01:46:39;;;;;;;4.00;2.80;;;;;;;26.53;59.24;98096.97;5010503;28;20207;-70
2021/09/17 01:49:07;;;;;;;8.60;2.73;;;;;;;25.83;61.18;98092.63;5009767;28;20792;-70
2021/09/17 01:51:34;;;;;;;3.97;2.47;;;;;;;25.91;62.28;98085.69;5010930;28;20227;-70
2021/09/17 01:54:04;;;;;;;2.50;2.30;;;;;;;26.02;62.11;98090.75;5010802;28;20195;-71
2021/09/17 01:56:32;;;;;;;4.00;2.70;;;;;;;26.40;59.49;98092.28;5008434;28;20296;-72
2021/09/17 01:59:00;;;;;;;2.50;2.27;;;;;;;26.46;58.93;98091.06;5011790;28;20230;-71
2021/09/17 02:01:27;;;;;;;3.37;2.90;;;;;;;26.15;61.33;98084.50;5014335;28;20240;-71
2021/09/17 02:03:55;;;;;;;4.30;2.80;;;;;;;26.08;61.69;98077.78;5014521;28;20227;-72
2021/09/17 02:06:23;;;;;;;7.50;2.80;;;;;;;26.38;60.07;98080.00;5014478;28;20214;-72
2021/09/17 02:08:51;;;;;;;8.77;4.57;;;;;;;26.38;59.23;98077.25;5014590;28;20216;-70
2021/09/17 02:11:18;;;;;;;3.63;2.80;;;;;;;26.15;61.18;98075.47;5014505;28;20208;-72
2021/09/17 02:13:47;;;;;;;3.20;2.57;;;;;;;26.62;57.83;98080.69;5014360;28;20200;-72
2021/09/17 02:16:14;;;;;;;4.00;2.53;;;;;;;26.01;62.25;98071.88;5013871;28;20203;-72
2021/09/17 02:18:42;;;;;;;3.67;2.50;;;;;;;26.39;60.87;98076.16;5014825;28;20215;-72
2021/09/17 02:21:09;;;;;;;5.10;2.83;;;;;;;26.00;61.86;98071.06;5014766;28;20299;-72
2021/09/17 02:23:36;;;;;;;3.63;2.60;;;;;;;25.47;63.98;98069.66;5013686;28;20718;-71
2021/09/17 02:26:04;;;;;;;5.53;3.27;;;;;;;25.68;63.51;98062.78;5014554;28;20576;-72
2021/09/17 02:28:31;;;;;;;5.20;2.83;;;;;;;25.87;63.91;98069.06;5013610;28;20573;-72
2021/09/17 02:31:00;;;;;;;2.90;2.40;;;;;;;26.19;61.99;98079.25;5014382;28;20656;-72
2021/09/17 02:33:27;;;;;;;3.53;2.63;;;;;;;26.52;58.17;98089.88;5014416;28;20222;-71
2021/09/17 02:35:54;;;;;;;4.70;3.10;;;;;;;26.03;58.40;98080.59;5014306;28;20212;-72
2021/09/17 02:38:22;;;;;;;4.60;2.70;;;;;;;26.27;57.99;98082.13;5012914;28;20207;-72
2021/09/17 02:40:50;;;;;;;3.67;2.83;;;;;;;26.00;60.48;98071.06;5005884;28;20209;-71
2021/09/17 02:43:17;;;;;;;4.43;3.10;;;;;;;26.58;57.82;98082.41;5013793;28;20236;-71
2021/09/17 02:45:44;;;;;;;4.20;2.80;;;;;;;26.40;58.81;98075.84;5014111;28;21529;-73
2021/09/17 02:48:13;;;;;;;3.00;2.70;;;;;;;25.82;62.71;98065.59;5013626;28;20672;-73
2021/09/17 02:50:41;;;;;;;4.50;3.00;;;;;;;26.36;59.28;98072.09;5013009;28;20686;-72
2021/09/17 02:53:08;;;;;;;3.77;2.80;;;;;;;25.68;61.43;98062.78;5011970;28;20230;-72
2021/09/17 02:55:35;;;;;;;3.93;2.80;;;;;;;25.51;64.01;98067.97;5014160;28;20298;-73
2021/09/17 02:58:03;;;;;;;3.83;3.00;;;;;;;26.12;60.15;98065.13;5011736;28;20221;-72
2021/09/17 03:00:31;;;;;;;4.33;2.93;;;;;;;26.03;60.21;98064.19;5014381;28;20298;-72
2021/09/17 03:02:59;;;;;;;4.83;2.97;;;;;;;26.12;61.83;98060.47;5013819;28;20231;-72
2021/09/17 03:05:27;;;;;;;4.73;3.27;;;;;;;26.20;61.13;98061.72;5014167;28;20215;-71
2021/09/17 03:07:54;;;;;;;2.87;2.57;;;;;;;26.01;62.12;98055.47;5012763;28;20219;-71
2021/09/17 03:10:22;;;;;;;3.43;3.00;;;;;;;26.01;62.58;98052.72;5012596;28;20310;-71
2021/09/17 03:12:49;;;;;;;5.50;2.67;;;;;;;26.06;62.10;98058.13;5006086;28;20734;-70
2021/09/17 03:15:17;;;;;;;4.33;2.80;;;;;;;26.62;58.98;98062.34;5012896;28;20690;-72
2021/09/17 03:17:44;;;;;;;3.10;2.80;;;;;;;26.24;60.59;98055.34;5013827;28;20211;-71
2021/09/17 03:20:12;;;;;;;3.20;2.80;;;;;;;25.94;61.72;98052.31;5013431;28;20271;-72
2021/09/17 03:22:41;;;;;;;4.50;3.03;;;;;;;25.64;63.33;98048.06;5014475;28;20219;-73
2021/09/17 03:25:10;;;;;;;7.07;3.00;;;;;;;25.99;63.07;98053.03;5012416;28;20209;-71
2021/09/17 03:27:37;;;;;;;4.70;3.10;;;;;;;26.24;62.53;98046.34;5013543;28;20200;-72
2021/09/17 03:30:05;;;;;;;6.30;3.17;;;;;;;26.56;58.68;98060.00;5013837;28;20213;-73
2021/09/17 03:32:32;;;;;;;4.70;3.20;;;;;;;25.99;62.22;98060.44;5013788;28;20215;-71
2021/09/17 03:35:00;;;;;;;6.87;3.10;;;;;;;26.22;61.07;98054.00;5013071;28;20203;-72
2021/09/17 03:37:27;;;;;;;4.93;2.97;;;;;;;26.45;59.71;98064.81;5013722;28;20203;-71
2021/09/17 03:39:56;;;;;;;3.27;2.97;;;;;;;26.20;61.69;98058.97;5012861;28;20668;-72
2021/09/17 03:42:23;;;;;;;4.40;3.20;;;;;;;26.56;59.55;98057.28;5013321;28;20255;-72
2021/09/17 03:44:50;;;;;;;5.40;3.20;;;;;;;26.47;57.79;98073.56;5006788;28;20283;-73
2021/09/17 03:47:18;;;;;;;3.80;2.97;;;;;;;25.78;61.75;98057.16;5013242;28;20283;-73
2021/09/17 03:49:45;;;;;;;4.00;3.20;;;;;;;25.63;63.68;98045.63;5013404;28;20676;-73
2021/09/17 03:52:12;;;;;;;3.83;2.87;;;;;;;25.95;63.08;98045.72;5013575;28;20738;-72
2021/09/17 03:54:39;;;;;;;5.17;3.10;;;;;;;26.32;60.10;98053.84;5012948;28;20683;-73
2021/09/17 03:57:08;;;;;;;3.53;2.97;;;;;;;26.23;59.39;98052.91;5013848;28;20963;-72
2021/09/17 03:59:36;;;;;;;4.73;3.07;;;;;;;25.75;60.37;98044.06;5014793;28;20235;-72
2021/09/17 04:02:03;;;;;;;4.27;2.73;;;;;;;26.04;60.45;98052.16;5015138;28;20741;-73
2021/09/17 04:04:30;;;;;;;5.80;2.90;;;;;;;26.14;60.04;98044.56;5014991;28;20223;-73
2021/09/17 04:06:58;;;;;;;4.60;2.97;;;;;;;25.90;61.81;98040.31;5013098;28;20209;-77
2021/09/17 04:09:26;;;;;;;5.10;3.67;;;;;;;25.06;64.35;98038.50;5012936;28;20247;-75
2021/09/17 04:11:54;;;;;;;7.67;3.20;;;;;;;25.12;64.23;98031.03;5012959;28;20222;-76
2021/09/17 04:14:23;;;;;;;9.30;3.83;;;;;;;25.69;61.24;98041.75;5013108;28;20261;-76
2021/09/17 04:16:51;;;;;;;5.43;3.53;;;;;;;25.73;60.89;98037.28;5013849;28;20199;-79
2021/09/17 04:19:18;;;;;;;4.37;3.50;;;;;;;25.30;62.49;98044.78;5006519;28;20243;-74
2021/09/17 04:21:45;;;;;;;4.87;2.87;;;;;;;25.54;61.51;98050.16;5011198;28;20251;-73
2021/09/17 04:24:12;;;;;;;4.40;3.50;;;;;;;25.68;61.14;98049.13;5008431;28;20238;-74
2021/09/17 04:26:40;;;;;;;5.47;2.93;;;;;;;25.77;63.31;98043.78;5011994;28;20196;-73
2021/09/17 04:29:07;;;;;;;5.57;3.00;;;;;;;25.75;63.42;98046.00;5012766;28;20210;-75
2021/09/17 04:31:36;;;;;;;5.13;3.20;;;;;;;25.93;61.44;98046.03;5013307;28;20223;-76
2021/09/17 04:34:03;;;;;;;5.77;3.30;;;;;;;25.85;60.23;98059.53;5019055;28;20199;-73
2021/09/17 04:36:30;;;;;;;6.63;3.00;;;;;;;24.70;64.01;98047.41;5010898;28;20690;-73
2021/09/17 04:38:57;;;;;;;5.10;3.10;;;;;;;24.41;64.90;98050.13;5011393;28;20655;-75
2021/09/17 04:41:25;;;;;;;3.07;2.70;;;;;;;25.02;65.71;98044.81;5012724;28;20686;-73
2021/09/17 04:43:52;;;;;;;5.90;3.37;;;;;;;25.64;62.09;98055.47;5013569;28;20222;-77
2021/09/17 04:46:20;;;;;;;5.80;3.10;;;;;;;25.19;64.68;98048.69;5011365;28;20219;-74
2021/09/17 04:48:48;;;;;;;4.50;3.40;;;;;;;25.88;61.53;98061.66;5011761;28;20203;-74
2021/09/17 04:51:15;;;;;;;4.03;3.00;;;;;;;25.34;64.16;98055.91;5012050;28;20667;-76
2021/09/17 04:53:43;;;;;;;6.47;3.63;;;;;;;25.62;63.23;98053.03;5012321;28;20222;-72
2021/09/17 04:56:10;;;;;;;4.83;3.07;;;;;;;25.56;62.18;98056.13;5012577;28;20207;-74
2021/09/17 04:58:37;;;;;;;8.67;3.90;;;;;;;25.29;63.70;98061.44;5016776;28;20213;-72
2021/09/17 05:01:05;;;;;;;5.03;3.30;;;;;;;25.25;63.34;98052.19;5011398;28;20203;-73
2021/09/17 05:03:32;;;;;;;4.53;3.57;;;;;;;25.21;67.22;98049.22;5013783;28;20594;-74
2021/09/17 05:06:01;;;;;;;7.07;4.20;;;;;;;25.00;67.92;98047.88;5012737;28;20203;-73
2021/09/17 05:08:28;;;;;;;7.80;4.17;;;;;;;25.17;66.93;98059.09;5012102;28;20216;-74
2021/09/17 05:10:55;;;;;;;5.63;4.20;;;;;;;25.16;68.24;98052.03;5012657;28;20210;-73
2021/09/17 05:13:23;;;;;;;5.97;4.30;;;;;;;24.88;66.42;98060.31;5012425;28;20222;-73
2021/09/17 05:15:50;;;;;;;7.80;4.90;;;;;;;25.02;66.78;98053.00;5011689;28;20210;-73
2021/09/17 05:18:17;;;;;;;7.17;4.90;;;;;;;24.98;68.06;98055.50;5012659;28;20210;-73
2021/09/17 05:20:45;;;;;;;6.13;4.60;;;;;;;25.11;67.28;98056.72;5012599;28;20275;-73
2021/09/17 05:23:13;;;;;;;5.30;3.93;;;;;;;25.00;66.25;98064.25;5012250;28;20232;-74
2021/09/17 05:25:41;;;;;;;6.23;4.80;;;;;;;24.94;64.78;98073.56;5012444;28;20205;-74
2021/09/17 05:28:08;;;;;;;11.23;5.00;;;;;;;24.34;65.60;98063.31;5012818;28;20626;-73
2021/09/17 05:30:36;;;;;;;6.63;4.90;;;;;;;24.56;65.80;98060.06;5011321;28;20214;-73
2021/09/17 05:33:03;;;;;;;11.50;5.60;;;;;;;24.64;66.49;98071.22;5011764;28;20249;-73
2021/09/17 05:35:30;;;;;;;7.43;4.83;;;;;;;24.55;67.35;98064.72;5012061;28;20210;-73
2021/09/17 05:37:58;;;;;;;12.60;5.27;;;;;;;24.29;66.62;98071.53;5012626;28;20207;-73
2021/09/17 05:40:26;;;;;;;11.70;5.37;;;;;;;24.55;67.68;98075.66;5012430;28;20217;-73
2021/09/17 05:42:54;;;;;;;8.77;5.23;;;;;;;24.56;67.39;98076.44;5011052;28;20233;-75
2021/09/17 05:45:21;;;;;;;6.60;5.47;;;;;;;24.22;67.19;98071.03;5011955;28;20229;-73
2021/09/17 05:47:48;;;;;;;10.53;6.50;;;;;;;24.69;67.68;98070.34;4997498;28;20202;-73
2021/09/17 05:50:16;;;;;;;12.37;6.67;;;;;;;24.85;66.15;98077.25;5012049;28;20209;-73
2021/09/17 05:52:43;;;;;;;11.23;6.60;;;;;;;24.73;68.78;98066.72;5012421;28;20219;-72
2021/09/17 05:55:11;;;;;;;11.73;6.23;;;;;;;24.85;65.83;98071.78;5012350;28;20667;-73
2021/09/17 05:57:40;;;;;;;9.17;5.73;;;;;;;25.05;67.53;98066.91;5004973;28;20208;-73
2021/09/17 06:00:09;;;;;;;10.00;6.00;;;;;;;25.62;62.35;98077.66;5012128;28;20213;-74
2021/09/17 06:02:36;;;;;;;9.30;5.87;;;;;;;25.15;63.20;98071.44;5011840;28;20579;-74
2021/09/17 06:05:04;;;;;;;9.87;4.93;;;;;;;25.41;62.13;98078.22;5011949;28;20701;-73
2021/09/17 06:07:31;;;;;;;13.40;5.50;;;;;;;25.63;64.33;98073.78;5012156;28;20204;-74
2021/09/17 06:10:00;;;;;;;17.77;6.00;;;;;;;25.76;63.14;98066.78;5012255;28;20679;-72
2021/09/17 06:12:28;;;;;;;14.50;5.77;;;;;;;25.97;60.65;98073.59;5011623;28;20226;-75
2021/09/17 06:14:57;;;;;;;27.70;6.67;;;;;;;26.20;60.16;98073.47;5011883;28;20229;-73
2021/09/17 06:17:24;;;;;;;13.77;5.43;;;;;;;26.17;59.99;98076.00;4997492;28;20203;-73
2021/09/17 06:19:51;;;;;;;25.07;6.60;;;;;;;25.51;62.04;98069.88;5015353;28;20211;-74
2021/09/17 06:22:19;;;;;;;13.90;5.80;;;;;;;26.13;60.04;98064.84;5009924;28;20863;-76
2021/09/17 06:24:46;;;;;;;19.50;5.57;;;;;;;26.15;59.35;98075.47;5010067;28;20894;-73
2021/09/17 06:27:13;;;;;;;27.43;6.40;;;;;;;26.22;60.01;98074.00;5011100;28;20204;-76
2021/09/17 06:29:41;;;;;;;22.03;6.07;;;;;;;26.50;59.31;98086.63;5011717;28;20687;-75
2021/09/17 06:32:09;;;;;;;37.90;7.03;;;;;;;26.24;60.02;98079.97;5011528;28;20232;-73
2021/09/17 06:34:37;;;;;;;17.23;5.30;;;;;;;26.18;61.47;98077.59;5011767;28;20203;-78
2021/09/17 06:37:04;;;;;;;13.30;4.37;;;;;;;26.50;60.45;98072.13;5012846;28;20207;-76
2021/09/17 06:39:32;;;;;;;17.07;5.03;;;;;;;26.26;60.46;98066.00;5007659;28;20208;-78
2021/09/17 06:41:59;;;;;;;13.43;4.37;;;;;;;26.00;63.17;98059.31;5012354;28;20726;-75
2021/09/17 06:44:27;;;;;;;17.33;5.47;;;;;;;26.21;61.88;98063.34;5002015;28;20322;-75
2021/09/17 06:46:54;;;;;;;10.70;4.67;;;;;;;26.64;60.56;98070.25;5019788;28;20222;-76
2021/09/17 06:49:23;;;;;;;8.20;4.90;;;;;;;26.87;57.97;98072.00;5013680;28;20228;-75
2021/09/17 06:51:50;;;;;;;11.93;4.57;;;;;;;26.78;59.31;98068.34;5014316;28;20228;-74
2021/09/17 06:54:17;;;;;;;9.10;4.13;;;;;;;26.74;60.49;98075.53;5013807;28;20208;-75
2021/09/17 06:56:44;;;;;;;6.87;5.00;;;;;;;26.91;56.43;98076.56;5015596;28;20202;-75
2021/09/17 06:59:12;;;;;;;10.07;4.50;;;;;;;26.97;58.60;98067.16;5019746;28;20214;-75
2021/09/17 07:01:39;;;;;;;9.37;5.30;;;;;;;26.82;57.24;98078.41;5022174;28;20240;-75
2021/09/17 07:04:06;;;;;;;8.83;4.50;;;;;;;26.59;59.28;98065.69;5022804;28;20236;-74
2021/09/17 07:06:37;;;;;;;8.03;5.00;;;;;;;26.44;57.39;98078.78;5019903;28;20214;-75
2021/09/17 07:09:04;;;;;;;12.80;5.43;;;;;;;25.86;59.11;98078.38;5014509;28;20240;-75
2021/09/17 07:11:33;;;;;;;8.20;4.73;;;;;;;26.76;58.71;98073.31;5018509;28;20595;-77
2021/09/17 07:14:00;;;;;;;5.33;4.23;;;;;;;27.18;55.72;98081.25;5019087;28;20217;-75
2021/09/17 07:16:28;;;;;;;6.00;4.70;;;;;;;26.95;57.76;98077.56;5012642;28;20232;-75
2021/09/17 07:18:55;;;;;;;7.47;4.93;;;;;;;26.78;56.75;98084.78;5013855;28;20229;-75
2021/09/17 07:21:23;;;;;;;8.17;4.63;;;;;;;26.79;57.27;98079.00;5013482;28;20206;-76
2021/09/17 07:23:52;;;;;;;8.17;4.90;;;;;;;27.64;54.53;98082.72;5014452;28;20889;-75
2021/09/17 07:26:19;;;;;;;6.63;4.47;;;;;;;27.36;52.14;98089.34;5014526;28;20216;-75
2021/09/17 07:28:46;;;;;;;5.43;3.87;;;;;;;27.74;51.48;98089.91;5014560;28;20211;-75
2021/09/17 07:31:13;;;;;;;5.30;3.47;;;;;;;28.59;48.65;98096.09;5014314;28;20211;-75
2021/09/17 07:33:41;;;;;;;7.70;4.17;;;;;;;28.35;48.66;98099.16;5014030;28;20218;-75
2021/09/17 07:36:08;;;;;;;12.67;4.30;;;;;;;28.53;47.92;98103.63;5013363;28;20215;-74
2021/09/17 07:38:35;;;;;;;8.40;3.77;;;;;;;27.88;51.55;98094.25;5013874;28;20207;-75
2021/09/17 07:41:04;;;;;;;11.23;4.40;;;;;;;28.29;49.24;98091.34;5015338;28;20210;-75
2021/09/17 07:43:31;;;;;;;10.70;4.10;;;;;;;27.33;52.14;98091.91;5022558;28;20233;-74
2021/09/17 07:45:59;;;;;;;9.63;4.03;;;;;;;27.91;50.56;98090.88;5033862;28;20222;-75
2021/09/17 07:48:26;;;;;;;10.13;5.10;;;;;;;27.40;50.80;98098.59;5033957;28;20214;-75
2021/09/17 07:50:53;;;;;;;7.53;3.97;;;;;;;26.91;53.91;98092.19;5033542;28;20217;-75
2021/09/17 07:53:20;;;;;;;6.30;4.67;;;;;;;26.96;52.82;98090.16;5013491;28;20231;-76
2021/09/17 07:55:48;;;;;;;6.20;4.33;;;;;;;26.73;54.78;98088.44;4994529;28;20208;-74
2021/09/17 07:58:16;;;;;;;11.13;4.63;;;;;;;27.00;53.51;98091.19;4994457;28;20216;-75
2021/09/17 08:00:43;;;;;;;8.50;5.43;;;;;;;28.27;50.25;98099.88;4993954;28;20208;-75
2021/09/17 08:03:11;;;;;;;6.83;4.60;;;;;;;29.29;46.07;98114.22;4993603;28;20232;-74
2021/09/17 08:05:38;;;;;;;14.57;5.43;;;;;;;29.18;46.17;98114.84;4993840;28;20228;-74
2021/09/17 08:08:05;;;;;;;9.37;3.97;;;;;;;28.51;51.72;98099.59;5001073;28;20212;-75
2021/09/17 08:10:33;;;;;;;13.20;5.10;;;;;;;27.91;49.51;98104.59;5013353;28;20580;-75
2021/09/17 08:13:00;;;;;;;9.67;5.37;;;;;;;26.51;51.84;98104.66;5013346;28;20227;-75
2021/09/17 08:15:29;;;;;;;8.67;5.17;;;;;;;29.05;46.38;98110.25;5011698;28;20567;-74
2021/09/17 08:17:56;;;;;;;10.77;4.97;;;;;;;28.35;47.05;98112.06;5013103;28;20210;-72
2021/09/17 08:20:23;;;;;;;8.50;4.30;;;;;;;28.06;50.77;98090.53;5012876;28;20211;-71
2021/09/17 08:22:50;;;;;;;9.70;5.40;;;;;;;26.68;52.76;98098.66;5008976;28;20235;-71
2021/09/17 08:25:18;;;;;;;11.90;5.27;;;;;;;27.91;50.76;98087.31;5011109;28;20234;-72
2021/09/17 08:27:45;;;;;;;10.07;5.27;;;;;;;28.73;46.83;98105.06;5012610;28;20212;-71
2021/09/17 08:30:14;;;;;;;7.20;5.53;;;;;;;26.83;51.24;98101.94;5014516;28;20293;-81
2021/09/17 08:32:42;;;;;;;8.30;6.57;;;;;;;25.86;54.27;98093.97;5014991;28;20226;-80
2021/09/17 08:35:11;;;;;;;7.13;5.70;;;;;;;26.10;54.19;98091.97;5014088;28;20238;-80
2021/09/17 08:37:39;;;;;;;9.70;6.77;;;;;;;26.23;53.22;98102.16;5016959;28;20227;-81
2021/09/17 08:40:07;;;;;;;7.97;5.83;;;;;;;26.74;54.26;98091.97;5008919;28;20208;-80
2021/09/17 08:42:35;;;;;;;9.07;6.17;;;;;;;27.07;51.74;98093.53;5014099;28;20225;-80
2021/09/17 08:45:04;;;;;;;10.33;6.70;;;;;;;28.25;48.84;98093.09;5015458;28;20564;-80
2021/09/17 08:47:33;;;;;;;10.90;5.97;;;;;;;28.05;50.95;98094.41;5014305;28;20223;-80
2021/09/17 08:50:01;;;;;;;13.43;5.87;;;;;;;28.85;47.83;98102.53;5015576;28;20215;-80
2021/09/17 08:52:29;;;;;;;7.37;6.20;;;;;;;27.74;51.68;98098.13;5013882;28;21334;-81
2021/09/17 08:54:56;;;;;;;9.97;6.27;;;;;;;28.09;50.30;98094.59;5014665;28;20210;-80
2021/09/17 08:57:23;;;;;;;10.33;6.67;;;;;;;26.47;53.73;98102.84;5014375;28;20195;-81
2021/09/17 08:59:50;;;;;;;13.20;6.70;;;;;;;26.84;53.64;98086.28;5014597;28;20576;-80
2021/09/17 09:02:23;;;;;;;10.57;6.60;;;;;;;26.16;55.91;98091.63;5014278;28;20245;-80
2021/09/17 09:04:57;;;;;;;7.83;6.07;;;;;;;28.36;50.73;98094.44;5017127;28;20231;-80
2021/09/17 09:07:32;;;;;;;8.63;6.13;;;;;;;27.97;50.51;98099.81;5013892;28;20210;-80
2021/09/17 09:10:07;;;;;;;8.57;6.90;;;;;;;28.77;47.59;98111.53;5012118;28;20575;-80
2021/09/17 09:12:35;;;;;;;10.20;7.13;;;;;;;26.52;53.37;98105.50;5013938;28;20215;-81
2021/09/17 09:15:13;;;;;;;9.07;6.60;;;;;;;26.71;52.98;98106.28;5013926;28;20203;-81
2021/09/17 09:17:40;;;;;;;12.00;6.83;;;;;;;28.06;50.51;98095.19;5014041;28;20179;-81
2021/09/17 09:20:24;;;;;;;9.63;7.17;;;;;;;27.03;53.14;98092.50;5014213;28;20203;-80
2021/09/17 09:23:07;;;;;;;9.40;7.47;;;;;;;26.27;55.75;98093.06;5011663;28;20230;-84
2021/09/17 09:25:34;;;;;;;9.23;6.80;;;;;;;27.33;54.11;98084.50;5011554;28;20237;-84
2021/09/17 09:28:12;;;;;;;12.50;7.30;;;;;;;29.12;48.33;98089.41;5013569;28;20206;-83
2021/09/17 09:30:39;;;;;;;13.43;7.97;;;;;;;27.76;50.79;98087.66;5012150;28;20293;-83
2021/09/17 09:33:28;;;;;;;10.50;7.57;;;;;;;28.20;49.15;98087.72;5013893;28;20704;-84
2021/09/17 09:35:57;;;;;;;10.37;6.97;;;;;;;28.39;49.45;98083.72;5014327;28;20278;-84
2021/09/17 09:38:35;;;;;;;11.50;7.33;;;;;;;28.05;48.59;98088.91;5013507;28;20234;-84
2021/09/17 09:41:04;;;;;;;12.40;6.97;;;;;;;28.61;49.07;98086.41;5006815;28;20253;-84
2021/09/17 09:43:33;;;;;;;9.70;7.07;;;;;;;29.09;45.80;98094.75;5013173;28;20699;-83
2021/09/17 09:46:21;;;;;;;10.87;7.10;;;;;;;29.50;45.17;98089.69;5013947;28;20223;-82
2021/09/17 09:49:07;;;;;;;11.37;7.00;;;;;;;28.72;46.70;98093.25;5014339;28;20444;-82
2021/09/17 09:51:36;;;;;;;10.00;6.87;;;;;;;28.06;48.63;98079.56;5015410;28;20252;-83
2021/09/17 09:54:06;;;;;;;10.30;6.93;;;;;;;27.35;50.93;98073.22;5015539;28;20212;-85
2021/09/17 09:56:35;;;;;;;11.23;7.73;;;;;;;27.33;51.92;98067.25;5017191;28;20204;-84
2021/09/17 09:59:04;;;;;;;11.10;7.23;;;;;;;27.87;49.98;98078.91;5015829;28;20574;-85
2021/09/17 10:01:34;;;;;;;13.87;7.60;;;;;;;27.17;50.40;98069.47;5016060;28;20568;-86
2021/09/17 10:04:02;;;;;;;10.37;7.33;;;;;;;30.00;43.92;98088.94;5014663;28;20691;-82
2021/09/17 10:06:32;;;;;;;10.20;6.60;;;;;;;28.71;45.27;98083.41;5015750;28;20231;-82
2021/09/17 10:08:59;;;;;;;9.87;6.47;;;;;;;27.86;47.96;98073.72;5014129;28;20209;-82
2021/09/17 10:11:28;;;;;;;10.47;7.43;;;;;;;29.18;45.21;98084.59;5013396;28;20657;-82
2021/09/17 10:13:57;;;;;;;9.20;6.60;;;;;;;28.91;46.57;98069.09;5013498;28;20202;-82
2021/09/17 10:16:26;;;;;;;9.87;6.43;;;;;;;30.40;41.54;98078.59;5013191;28;20207;-83
2021/09/17 10:18:55;;;;;;;8.60;6.10;;;;;;;30.14;42.11;98089.63;5013843;28;20213;-82
2021/09/17 10:21:49;;;;;;;8.90;5.80;;;;;;;29.11;43.30;98081.47;5017004;28;20212;-83
2021/09/17 10:24:38;;;;;;;11.93;6.40;;;;;;;29.55;43.46;98073.06;5005900;28;20223;-82
2021/09/17 10:27:11;;;;;;;7.67;5.40;;;;;;;29.15;44.26;98068.72;5030751;28;20209;-82
2021/09/17 10:29:40;;;;;;;9.50;5.93;;;;;;;28.87;43.24;98075.53;5030763;28;20213;-82
2021/09/17 10:32:12;;;;;;;8.43;5.53;;;;;;;29.21;41.97;98075.69;5030443;28;20291;-84
2021/09/17 10:34:41;;;;;;;6.73;5.40;;;;;;;29.36;42.82;98067.00;5029927;28;20269;-83
2021/09/17 10:37:10;;;;;;;6.43;5.67;;;;;;;28.92;41.85;98078.97;5036882;28;20235;-82
2021/09/17 10:39:38;;;;;;;7.10;5.77;;;;;;;29.16;41.11;98078.59;5017922;28;20213;-82
2021/09/17 10:42:17;;;;;;;8.70;5.90;;;;;;;29.62;40.21;98078.88;5013917;28;20710;-82
2021/09/17 10:45:18;;;;;;;6.50;4.17;;;;;;;31.25;35.23;98086.59;5015393;28;20249;-83
2021/09/17 10:48:01;;;;;;;7.63;4.50;;;;;;;32.00;33.10;98091.97;5016391;28;20203;-83
2021/09/17 10:50:47;;;;;;;6.10;4.40;;;;;;;31.03;34.92;98090.41;5006982;28;20210;-83
2021/09/17 10:53:16;;;;;;;7.23;5.20;;;;;;;31.09;35.72;98089.09;5011394;28;20715;-82
2021/09/17 10:56:05;;;;;;;8.93;4.80;;;;;;;30.39;40.26;98068.69;5015913;28;20218;-83
2021/09/17 10:58:34;;;;;;;5.80;4.90;;;;;;;30.68;38.94;98064.13;5014976;28;20293;-83
2021/09/17 11:01:03;;;;;;;9.23;5.07;;;;;;;29.69;38.82;98069.03;5009653;28;20237;-82
2021/09/17 11:03:58;;;;;;;4.90;4.00;;;;;;;30.26;36.35;98084.25;5015538;28;20240;-81
2021/09/17 11:06:29;;;;;;;5.10;3.80;;;;;;;30.25;37.19;98073.59;5015516;28;20219;-79
2021/09/17 11:08:57;;;;;;;7.37;4.63;;;;;;;29.32;39.19;98079.75;5020768;28;20202;-80
2021/09/17 11:11:27;;;;;;;5.87;4.53;;;;;;;28.72;38.43;98084.19;5021127;28;20583;-78
2021/09/17 11:13:57;;;;;;;5.53;4.53;;;;;;;27.62;43.26;98073.19;5018920;28;20203;-87
2021/09/17 11:16:26;;;;;;;4.97;4.30;;;;;;;28.77;40.07;98073.06;5019255;28;20285;-79
2021/09/17 11:18:55;;;;;;;8.00;3.50;;;;;;;30.74;37.53;98073.81;5017765;28;20567;-79
2021/09/17 11:21:23;;;;;;;5.43;3.70;;;;;;;30.61;37.13;98071.25;5005962;28;20221;-79
2021/09/17 11:23:52;;;;;;;3.83;3.47;;;;;;;29.65;38.21;98070.00;5010882;28;20212;-81
2021/09/17 11:26:24;;;;;;;4.50;3.70;;;;;;;27.83;43.15;98064.19;5014889;28;20531;-78
2021/09/17 11:29:04;;;;;;;5.77;3.87;;;;;;;28.43;40.96;98059.97;5015540;28;20460;-81
2021/09/17 11:31:34;;;;;;;3.97;3.30;;;;;;;28.41;42.35;98056.72;5015058;28;20256;-80
2021/09/17 11:34:03;;;;;;;9.53;4.07;;;;;;;30.50;36.40;98068.03;5015612;28;20204;-82
2021/09/17 11:36:38;;;;;;;5.00;2.90;;;;;;;31.32;33.98;98068.38;5015579;28;20202;-69
2021/09/17 11:39:17;;;;;;;5.67;3.40;;;;;;;29.52;37.72;98062.66;5011288;28;20219;-69